Beef Island, British Virgin Islands

11:38 AM AST on February 08, 2016 (GMT -0400)
Colison Point, Virgin Gorda | | Change Station
CLOSE
Current Station
Personal Weather Station
Location: Virgin Gorda, VIRGIN GORDA
Elevation: 165 ft
Nearby Weather Stations

Elev 165 ft 18.46 °N, 64.44 °W | Updated 2 seconds ago

Scattered Clouds
Scattered Clouds
78.8 °F
Feels Like 83 °F
N
15.4
Wind Variable Wind from SE
Gusts 17.5 mph

Today
High -- | Low -- °F
--% Chance of Precip.
Yesterday
High -- | Low -- °F
Precip. -- in
Pressure 30.09 in
Visibility 6.2 miles
Clouds Scattered Clouds 2000 ft
Heat Index 83 °F
Dew Point 76 °F
Humidity 91%
Rainfall 0.00 in
Snow Depth Not available.
6:49 AM 6:15 PM
New Moon, 0% visible
METAR TUPJ 081500Z 15007KT 9999 SCT020 28/23 Q1019 RMK A3010
Pressure 30.09 in
Visibility 6.2 miles
Clouds Scattered Clouds 2000 ft
Heat Index 83 °F
Dew Point 76 °F
Humidity 91%
Rainfall 0.00 in
Snow Depth Not available.
6:49 AM 6:15 PM
New Moon, 0% visible
METAR TUPJ 081500Z 15007KT 9999 SCT020 28/23 Q1019 RMK A3010

10-Day Weather Forecast

Almanac

Astronomy

Feb. 08, 2016 Rise Set
Actual Time
Civil Twilight
Nautical Twilight
Astronomical Twilight
Moon
Length of Visible Light
Length of Day
Tomorrow will be .
, % of the Moon is Illuminated

Today's Extremes

Country Highs Country Lows

Community

WunderPhotos

Upload Photos

1,891,440 photos uploaded!

WunderBlog® & News

Nearby

Air Quality

  Air Quality AQ Index Pollutant
Not available.

Snow Depth

Station Depth Elevation

Earthquake Activity

City Distance Mag. Time & Date
Minimum magnitude displayed is 2.5.

Coastal Water Temperatures

Place Temperature

Stations

Nearby Weather Stations

Station Location Temp. Windchill Dew Point Humidity Wind Precip. Elev Updated Type